createdAt,value
2023-02-04T00:00:49.938Z,100.00
2023-02-04T00:03:19.112Z,100.00
2023-02-04T00:05:49.829Z,100.00
2023-02-04T00:08:19.675Z,100.00
2023-02-04T00:10:48.349Z,100.00
2023-02-04T00:13:17.418Z,100.00
2023-02-04T00:15:46.383Z,100.00
2023-02-04T00:18:15.389Z,100.00
2023-02-04T00:20:44.391Z,100.00
2023-02-04T00:23:14.868Z,100.00
2023-02-04T00:25:43.472Z,100.00
2023-02-04T00:28:12.519Z,100.00
2023-02-04T00:30:41.545Z,100.00
2023-02-04T00:33:11.284Z,100.00
2023-02-04T00:35:40.412Z,100.00
2023-02-04T00:38:09.440Z,100.00
2023-02-04T00:40:39.679Z,100.00
2023-02-04T00:43:08.710Z,100.00
2023-02-04T00:45:39.742Z,100.00
2023-02-04T00:48:08.809Z,100.00
2023-02-04T00:50:39.950Z,100.00
2023-02-04T00:53:09.607Z,100.00
2023-02-04T00:55:39.980Z,100.00
2023-02-04T00:58:09.022Z,100.00
2023-02-04T01:00:38.303Z,100.00
2023-02-04T01:03:07.903Z,100.00
2023-02-04T01:05:37.028Z,100.00
2023-02-04T01:08:07.204Z,100.00
2023-02-04T01:10:36.078Z,100.00
2023-02-04T01:13:08.449Z,100.00
2023-02-04T01:15:37.755Z,100.00
2023-02-04T01:18:06.869Z,100.00
2023-02-04T01:20:35.910Z,100.00
2023-02-04T01:23:05.140Z,100.00
2023-02-04T01:25:33.768Z,100.00
2023-02-04T01:28:02.829Z,100.00
2023-02-04T01:30:34.646Z,100.00
2023-02-04T01:33:03.743Z,100.00
2023-02-04T01:35:32.797Z,100.00
2023-02-04T01:38:01.785Z,100.00
2023-02-04T01:40:32.001Z,100.00
2023-02-04T01:43:01.463Z,100.00
2023-02-04T01:45:33.993Z,100.00
2023-02-04T01:48:05.903Z,100.00
2023-02-04T01:50:35.447Z,100.00
2023-02-04T01:53:04.510Z,100.00
2023-02-04T01:55:34.471Z,100.00
2023-02-04T01:58:03.530Z,100.00
2023-02-04T02:00:35.268Z,100.00
2023-02-04T02:03:09.298Z,100.00
2023-02-04T02:05:42.102Z,100.00
2023-02-04T02:08:11.999Z,100.00
2023-02-04T02:10:42.196Z,100.00
2023-02-04T02:13:13.298Z,100.00
2023-02-04T02:15:42.867Z,100.00
2023-02-04T02:18:14.118Z,100.00
2023-02-04T02:20:44.749Z,100.00
2023-02-04T02:23:20.367Z,100.00
2023-02-04T02:25:50.767Z,100.00
2023-02-04T02:28:23.179Z,100.00
2023-02-04T02:30:52.545Z,100.00
2023-02-04T02:33:21.967Z,100.00
2023-02-04T02:35:51.455Z,100.00
2023-02-04T02:38:21.443Z,100.00
2023-02-04T02:40:52.671Z,100.00
2023-02-04T02:43:23.604Z,100.00
2023-02-04T02:45:53.060Z,100.00
2023-02-04T02:48:22.617Z,100.00
2023-02-04T02:50:51.810Z,100.00
2023-02-04T02:53:23.362Z,100.00
2023-02-04T02:55:53.632Z,100.00
2023-02-04T02:58:28.070Z,100.00
2023-02-04T03:00:58.632Z,100.00
2023-02-04T03:03:30.230Z,100.00
2023-02-04T03:06:02.996Z,100.00
2023-02-04T03:08:32.185Z,100.00
2023-02-04T03:11:02.851Z,100.00
2023-02-04T03:13:34.602Z,100.00
2023-02-04T03:16:04.427Z,100.00
2023-02-04T03:18:33.468Z,100.00
2023-02-04T03:21:04.969Z,100.00
2023-02-04T03:23:34.712Z,100.00
2023-02-04T03:26:06.918Z,100.00
2023-02-04T03:28:35.790Z,100.00
2023-02-04T03:31:05.194Z,100.00
2023-02-04T03:33:36.037Z,100.00
2023-02-04T03:36:05.530Z,100.00
2023-02-04T03:38:34.939Z,100.00
2023-02-04T03:41:05.563Z,100.00
2023-02-04T03:43:34.219Z,100.00
2023-02-04T03:46:03.427Z,100.00
2023-02-04T03:48:32.638Z,100.00
2023-02-04T03:51:01.633Z,100.00
2023-02-04T03:53:30.822Z,100.00
2023-02-04T03:55:59.932Z,100.00
2023-02-04T03:58:30.153Z,100.00
2023-02-04T04:00:59.206Z,100.00
2023-02-04T04:03:28.257Z,100.00
2023-02-04T04:05:57.221Z,100.00
2023-02-04T04:08:26.232Z,100.00
2023-02-04T04:10:54.987Z,100.00
2023-02-04T04:13:24.008Z,100.00
2023-02-04T04:15:54.518Z,100.00
2023-02-04T04:18:23.584Z,100.00
2023-02-04T04:20:52.864Z,100.00
2023-02-04T04:23:21.950Z,100.00
2023-02-04T04:25:50.706Z,100.00
2023-02-04T04:28:20.039Z,100.00
2023-02-04T04:30:49.385Z,100.00
2023-02-04T04:33:19.944Z,100.00
2023-02-04T04:35:49.053Z,100.00
2023-02-04T04:38:18.070Z,100.00
2023-02-04T04:40:46.673Z,100.00
2023-02-04T04:43:15.836Z,100.00
2023-02-04T04:45:45.066Z,100.00
2023-02-04T04:48:14.269Z,100.00
2023-02-04T04:50:45.452Z,100.00
2023-02-04T04:53:14.426Z,100.00
2023-02-04T04:55:44.073Z,100.00
2023-02-04T04:58:13.643Z,100.00
2023-02-04T05:00:43.570Z,100.00
2023-02-04T05:03:12.577Z,100.00
2023-02-04T05:05:41.619Z,100.00
2023-02-04T05:08:14.128Z,100.00
2023-02-04T05:10:43.002Z,100.00
2023-02-04T05:13:13.113Z,100.00
2023-02-04T05:15:42.477Z,100.00
2023-02-04T05:18:11.492Z,100.00
2023-02-04T05:20:40.588Z,100.00
2023-02-04T05:23:09.576Z,100.00
2023-02-04T05:25:40.170Z,100.00
2023-02-04T05:28:09.412Z,100.00
2023-02-04T05:30:38.534Z,100.00
2023-02-04T05:33:07.843Z,100.00
2023-02-04T05:35:36.941Z,100.00
2023-02-04T05:38:05.989Z,100.00
2023-02-04T05:40:34.752Z,100.00
2023-02-04T05:43:06.155Z,100.00
2023-02-04T05:45:35.246Z,100.00
2023-02-04T05:48:04.389Z,100.00
2023-02-04T05:50:33.719Z,100.00
2023-02-04T05:53:11.905Z,100.00
2023-02-04T05:55:40.551Z,100.00
2023-02-04T05:58:11.199Z,100.00
2023-02-04T06:00:40.522Z,100.00
2023-02-04T06:03:09.567Z,100.00
2023-02-04T06:05:39.089Z,100.00
2023-02-04T06:08:08.085Z,100.00
2023-02-04T06:10:36.751Z,100.00
2023-02-04T06:13:05.694Z,100.00
2023-02-04T06:15:36.137Z,100.00
2023-02-04T06:18:05.601Z,100.00
2023-02-04T06:20:34.739Z,100.00
2023-02-04T06:23:03.757Z,100.00
2023-02-04T06:25:32.369Z,100.00
2023-02-04T06:28:01.413Z,100.00
2023-02-04T06:30:30.897Z,100.00
2023-02-04T06:33:01.667Z,100.00
2023-02-04T06:35:30.648Z,100.00
2023-02-04T06:37:59.816Z,100.00
2023-02-04T06:40:28.478Z,100.00
2023-02-04T06:42:57.547Z,100.00
2023-02-04T06:45:26.573Z,100.00
2023-02-04T06:47:55.773Z,100.00
2023-02-04T06:50:26.304Z,100.00
2023-02-04T06:52:55.275Z,100.00
2023-02-04T06:55:24.399Z,100.00
2023-02-04T06:57:53.722Z,100.00
2023-02-04T07:00:23.158Z,100.00
2023-02-04T07:02:53.015Z,100.00
2023-02-04T07:05:22.311Z,100.00
2023-02-04T07:07:52.566Z,100.00
2023-02-04T07:10:22.195Z,100.00
2023-02-04T07:12:51.293Z,100.00
2023-02-04T07:15:20.635Z,100.00
2023-02-04T07:17:49.804Z,97.67
2023-02-04T07:20:19.386Z,93.97
2023-02-04T07:22:48.093Z,92.93
2023-02-04T07:25:18.740Z,91.21
2023-02-04T07:27:47.864Z,91.06
2023-02-04T07:30:17.166Z,86.57
2023-02-04T07:32:46.246Z,82.94
2023-02-04T07:35:15.310Z,79.56
2023-02-04T07:37:44.055Z,72.21
2023-02-04T07:40:14.154Z,69.40
2023-02-04T07:42:44.686Z,65.42
2023-02-04T07:45:19.121Z,66.89
2023-02-04T07:47:48.195Z,66.08
2023-02-04T07:50:17.702Z,64.32
2023-02-04T07:52:46.338Z,63.46
2023-02-04T07:55:15.332Z,65.06
2023-02-04T07:57:46.053Z,53.90
2023-02-04T08:00:16.481Z,50.88
2023-02-04T08:02:46.325Z,50.62
2023-02-04T08:05:15.797Z,50.76
2023-02-04T08:07:44.514Z,52.21
2023-02-04T08:10:15.315Z,45.87
2023-02-04T08:12:45.911Z,47.64
2023-02-04T08:15:14.953Z,41.97
2023-02-04T08:17:44.038Z,39.30
2023-02-04T08:20:14.024Z,39.71
2023-02-04T08:22:42.720Z,38.79
2023-02-04T08:25:12.937Z,36.59
2023-02-04T08:27:42.776Z,36.73
2023-02-04T08:30:13.994Z,37.99
2023-02-04T08:32:43.112Z,36.42
2023-02-04T08:35:12.281Z,35.10
2023-02-04T08:37:41.190Z,37.23
2023-02-04T08:40:11.383Z,37.66
2023-02-04T08:42:40.381Z,39.34
2023-02-04T08:45:10.408Z,40.32
2023-02-04T08:47:40.887Z,41.38
2023-02-04T08:50:10.615Z,34.72
2023-02-04T08:52:39.319Z,33.65
2023-02-04T08:55:09.172Z,33.17
2023-02-04T08:57:38.191Z,32.56
2023-02-04T09:00:08.288Z,34.25
2023-02-04T09:02:37.418Z,31.92
2023-02-04T09:05:08.888Z,32.75
2023-02-04T09:07:38.285Z,32.88
2023-02-04T09:10:09.197Z,33.02
2023-02-04T09:12:39.736Z,31.76
2023-02-04T09:15:09.522Z,31.84
2023-02-04T09:17:39.074Z,29.57
2023-02-04T09:20:11.761Z,29.70
2023-02-04T09:22:40.756Z,30.51
2023-02-04T09:25:10.519Z,24.38
2023-02-04T09:27:39.572Z,26.94
2023-02-04T09:30:09.572Z,26.64
2023-02-04T09:32:38.575Z,23.38
2023-02-04T09:35:07.880Z,21.34
2023-02-04T09:37:37.996Z,21.81
2023-02-04T09:40:07.952Z,23.54
2023-02-04T09:42:37.151Z,22.27
2023-02-04T09:45:07.300Z,24.58
2023-02-04T09:47:36.473Z,22.68
2023-02-04T09:50:05.728Z,22.95
2023-02-04T09:52:34.507Z,24.09
2023-02-04T09:55:07.177Z,23.06
2023-02-04T09:57:36.276Z,23.27
2023-02-04T10:00:11.730Z,23.62
2023-02-04T10:02:40.859Z,24.66
2023-02-04T10:05:15.321Z,23.93
2023-02-04T10:07:44.712Z,22.50
2023-02-04T10:10:19.482Z,22.68
2023-02-04T10:12:49.320Z,24.14
2023-02-04T10:15:20.678Z,22.58
2023-02-04T10:17:51.155Z,22.61
2023-02-04T10:20:22.763Z,23.12
2023-02-04T10:22:53.951Z,24.13
2023-02-04T10:25:26.276Z,22.28
2023-02-04T10:27:56.743Z,22.15
2023-02-04T10:30:30.387Z,21.30
2023-02-04T10:33:16.278Z,21.18
2023-02-04T10:36:14.908Z,23.17
2023-02-04T10:38:44.398Z,22.72
2023-02-04T10:41:15.916Z,25.30
2023-02-04T10:43:44.616Z,28.20
2023-02-04T10:46:13.785Z,29.34
2023-02-04T10:48:43.856Z,32.11
2023-02-04T10:51:14.699Z,35.07
2023-02-04T10:54:01.354Z,35.95
2023-02-04T10:56:31.872Z,38.31
2023-02-04T10:59:00.987Z,43.64
2023-02-04T11:01:31.166Z,48.31
2023-02-04T11:04:00.243Z,43.99
2023-02-04T11:06:30.153Z,48.97
2023-02-04T11:09:00.902Z,52.64
2023-02-04T11:11:31.636Z,59.64
2023-02-04T11:14:04.429Z,53.57
2023-02-04T11:16:35.739Z,51.64
2023-02-04T11:19:06.459Z,44.38
2023-02-04T11:21:44.813Z,43.49
2023-02-04T11:24:27.127Z,41.81
2023-02-04T11:27:09.479Z,33.86
2023-02-04T11:29:39.671Z,34.18
2023-02-04T11:32:27.834Z,34.55
2023-02-04T11:34:57.481Z,35.34
2023-02-04T11:37:40.164Z,33.31
2023-02-04T11:40:28.045Z,30.78
2023-02-04T11:43:03.944Z,31.78
2023-02-04T11:45:35.017Z,37.19
2023-02-04T11:48:05.971Z,37.42
2023-02-04T11:50:38.548Z,38.08
2023-02-04T11:53:07.816Z,39.57
2023-02-04T11:55:38.021Z,39.30
2023-02-04T11:58:15.963Z,43.67
2023-02-04T12:00:45.815Z,40.39
2023-02-04T12:03:29.983Z,35.58
2023-02-04T12:05:59.742Z,38.56
2023-02-04T12:08:33.755Z,39.30
2023-02-04T12:11:06.488Z,40.92
2023-02-04T12:13:49.623Z,36.90
2023-02-04T12:16:18.796Z,38.93
2023-02-04T12:18:50.030Z,40.23
2023-02-04T12:21:20.119Z,40.26
2023-02-04T12:23:49.180Z,45.39
2023-02-04T12:26:18.251Z,46.65
2023-02-04T12:28:48.548Z,51.41
2023-02-04T12:31:19.125Z,56.75
2023-02-04T12:33:48.474Z,53.79
2023-02-04T12:36:17.460Z,55.30
2023-02-04T12:38:46.529Z,65.36
2023-02-04T12:41:15.716Z,74.60
2023-02-04T12:43:44.397Z,78.39
2023-02-04T12:46:15.019Z,80.03
2023-02-04T12:48:46.827Z,84.55
2023-02-04T12:51:15.845Z,76.95
2023-02-04T12:53:44.973Z,80.47
2023-02-04T12:56:14.028Z,76.19
2023-02-04T12:58:42.678Z,75.02
2023-02-04T13:01:11.844Z,76.07
2023-02-04T13:03:42.407Z,79.82
2023-02-04T13:06:11.486Z,81.34
2023-02-04T13:08:40.616Z,82.57
2023-02-04T13:11:09.718Z,80.72
2023-02-04T13:13:38.311Z,70.78
2023-02-04T13:16:07.613Z,52.91
2023-02-04T13:18:36.648Z,56.13
2023-02-04T13:21:07.389Z,63.17
2023-02-04T13:23:36.525Z,68.08
2023-02-04T13:26:05.677Z,72.61
2023-02-04T13:28:34.368Z,74.03
2023-02-04T13:31:04.484Z,75.36
2023-02-04T13:33:33.784Z,77.56
2023-02-04T13:36:02.919Z,77.74
2023-02-04T13:38:33.569Z,77.12
2023-02-04T13:41:02.584Z,78.92
2023-02-04T13:43:31.299Z,80.99
2023-02-04T13:46:02.059Z,81.37
2023-02-04T13:48:31.127Z,80.68
2023-02-04T13:51:00.131Z,83.54
2023-02-04T13:53:31.211Z,85.18
2023-02-04T13:56:02.338Z,85.44
2023-02-04T13:58:30.971Z,84.36
2023-02-04T14:01:00.106Z,84.37
2023-02-04T14:03:30.328Z,85.25
2023-02-04T14:05:59.347Z,83.85
2023-02-04T14:08:28.787Z,81.85
2023-02-04T14:10:57.699Z,81.08
2023-02-04T14:13:28.541Z,81.73
2023-02-04T14:15:57.682Z,78.67
2023-02-04T14:18:26.857Z,80.52
2023-02-04T14:20:55.927Z,81.69
2023-02-04T14:23:25.195Z,80.72
2023-02-04T14:25:54.288Z,81.65
2023-02-04T14:28:23.472Z,82.09
2023-02-04T14:30:55.050Z,81.48
2023-02-04T14:33:24.437Z,82.68
2023-02-04T14:35:53.560Z,83.22
2023-02-04T14:38:23.126Z,83.64
2023-02-04T14:40:51.906Z,83.54
2023-02-04T14:43:21.053Z,83.48
2023-02-04T14:45:51.641Z,81.72
2023-02-04T14:48:22.394Z,80.72
2023-02-04T14:50:51.437Z,81.05
2023-02-04T14:53:20.699Z,80.56
2023-02-04T14:55:49.524Z,80.60
2023-02-04T14:58:18.634Z,80.88
2023-02-04T15:00:47.870Z,81.33
2023-02-04T15:03:16.989Z,82.33
2023-02-04T15:05:47.472Z,82.44
2023-02-04T15:08:16.536Z,81.81
2023-02-04T15:10:45.322Z,81.70
2023-02-04T15:13:14.456Z,81.92
2023-02-04T15:15:43.559Z,82.11
2023-02-04T15:18:12.528Z,82.12
2023-02-04T15:20:41.600Z,81.06
2023-02-04T15:23:13.268Z,81.25
2023-02-04T15:25:41.926Z,81.55
2023-02-04T15:28:12.194Z,82.02
2023-02-04T15:30:41.518Z,82.15
2023-02-04T15:33:13.082Z,82.05
2023-02-04T15:35:42.133Z,83.61
2023-02-04T15:38:12.706Z,84.03
2023-02-04T15:40:41.030Z,84.02
2023-02-04T15:43:11.145Z,84.19
2023-02-04T15:45:41.608Z,84.06
2023-02-04T15:48:10.945Z,85.63
2023-02-04T15:50:40.467Z,85.88
2023-02-04T15:53:09.546Z,86.30
2023-02-04T15:55:39.762Z,87.56
2023-02-04T15:58:08.887Z,89.04
2023-02-04T16:00:38.101Z,90.26
2023-02-04T16:03:08.433Z,90.90
2023-02-04T16:05:37.699Z,91.74
2023-02-04T16:08:06.837Z,91.80
2023-02-04T16:10:35.641Z,92.22
2023-02-04T16:13:06.211Z,93.04
2023-02-04T16:15:35.529Z,93.43
2023-02-04T16:18:04.869Z,92.99
2023-02-04T16:20:34.018Z,93.00
2023-02-04T16:23:04.339Z,93.37
2023-02-04T16:25:35.015Z,93.83
2023-02-04T16:28:06.141Z,93.98
2023-02-04T16:30:35.236Z,94.44
2023-02-04T16:33:04.324Z,96.11
2023-02-04T16:35:33.950Z,95.10
2023-02-04T16:38:03.234Z,95.07
2023-02-04T16:40:32.135Z,95.93
2023-02-04T16:43:01.421Z,95.58
2023-02-04T16:45:32.291Z,96.86
2023-02-04T16:48:01.498Z,90.49
2023-02-04T16:50:30.651Z,89.80
2023-02-04T16:52:59.837Z,87.48
2023-02-04T16:55:30.231Z,88.60
2023-02-04T16:57:59.270Z,87.51
2023-02-04T17:00:28.301Z,89.10
2023-02-04T17:02:59.105Z,90.92
2023-02-04T17:05:28.394Z,94.22
2023-02-04T17:07:58.561Z,97.14
2023-02-04T17:10:41.809Z,97.64
2023-02-04T17:13:12.595Z,98.24
2023-02-04T17:15:41.731Z,98.96
2023-02-04T17:18:12.245Z,98.31
2023-02-04T17:20:41.263Z,99.66
2023-02-04T17:23:10.249Z,99.66
2023-02-04T17:25:39.207Z,99.92
2023-02-04T17:28:08.332Z,100.00
2023-02-04T17:30:37.382Z,100.00
2023-02-04T17:33:06.664Z,100.00
2023-02-04T17:35:37.168Z,100.00
2023-02-04T17:38:06.785Z,100.00
2023-02-04T17:40:35.555Z,100.00
2023-02-04T17:43:05.071Z,100.00
2023-02-04T17:45:34.499Z,100.00
2023-02-04T17:48:05.184Z,100.00
2023-02-04T17:50:39.311Z,100.00
2023-02-04T17:53:09.403Z,100.00
2023-02-04T17:55:39.702Z,100.00
2023-02-04T17:58:14.094Z,100.00
2023-02-04T18:00:44.668Z,100.00
2023-02-04T18:03:15.176Z,100.00
2023-02-04T18:05:47.616Z,100.00
2023-02-04T18:08:17.960Z,100.00
2023-02-04T18:10:48.328Z,100.00
2023-02-04T18:13:19.126Z,100.00
2023-02-04T18:15:51.269Z,100.00
2023-02-04T18:18:23.539Z,100.00
2023-02-04T18:21:01.176Z,100.00
2023-02-04T18:23:31.754Z,100.00
2023-02-04T18:26:02.975Z,100.00
2023-02-04T18:28:35.856Z,100.00
2023-02-04T18:31:23.330Z,100.00
2023-02-04T18:33:52.474Z,100.00
2023-02-04T18:36:23.294Z,100.00
2023-02-04T18:38:52.589Z,100.00
2023-02-04T18:41:34.130Z,100.00
2023-02-04T18:44:16.553Z,99.76
2023-02-04T18:46:48.224Z,98.93
2023-02-04T18:49:27.520Z,98.89
2023-02-04T18:51:59.779Z,100.00
2023-02-04T18:54:36.083Z,100.00
2023-02-04T18:57:30.428Z,100.00
2023-02-04T19:00:17.793Z,100.00
2023-02-04T19:02:49.715Z,100.00
2023-02-04T19:05:31.059Z,100.00
2023-02-04T19:08:18.993Z,100.00
2023-02-04T19:10:48.228Z,100.00
2023-02-04T19:13:21.210Z,100.00
2023-02-04T19:15:58.363Z,100.00
2023-02-04T19:18:29.703Z,100.00
2023-02-04T19:21:04.013Z,100.00
2023-02-04T19:23:38.157Z,100.00
2023-02-04T19:26:25.093Z,100.00
2023-02-04T19:28:55.090Z,100.00
2023-02-04T19:31:24.703Z,100.00
2023-02-04T19:33:55.520Z,100.00
2023-02-04T19:36:34.979Z,100.00
2023-02-04T19:39:14.149Z,100.00
2023-02-04T19:41:48.328Z,100.00
2023-02-04T19:44:31.621Z,100.00
2023-02-04T19:47:18.275Z,100.00
2023-02-04T19:49:47.422Z,100.00
2023-02-04T19:52:36.182Z,100.00
2023-02-04T19:55:35.507Z,100.00
2023-02-04T19:58:18.214Z,100.00
2023-02-04T20:01:02.296Z,100.00
2023-02-04T20:03:37.441Z,100.00
2023-02-04T20:06:23.464Z,100.00
2023-02-04T20:08:56.611Z,100.00
2023-02-04T20:11:52.546Z,100.00
2023-02-04T20:14:30.832Z,100.00
2023-02-04T20:17:01.045Z,100.00
2023-02-04T20:19:30.310Z,100.00
2023-02-04T20:22:23.622Z,100.00
2023-02-04T20:24:55.733Z,100.00
2023-02-04T20:27:27.484Z,100.00
2023-02-04T20:30:00.879Z,100.00
2023-02-04T20:32:30.471Z,100.00
2023-02-04T20:35:02.934Z,100.00
2023-02-04T20:37:33.128Z,100.00
2023-02-04T20:40:03.502Z,100.00
2023-02-04T20:42:43.334Z,100.00
2023-02-04T20:45:34.311Z,100.00
2023-02-04T20:48:25.118Z,100.00
2023-02-04T20:50:55.352Z,100.00
2023-02-04T20:53:25.085Z,100.00
2023-02-04T20:55:55.988Z,100.00
2023-02-04T20:58:29.055Z,100.00
2023-02-04T21:00:58.626Z,100.00
2023-02-04T21:03:30.946Z,100.00
2023-02-04T21:06:01.053Z,100.00
2023-02-04T21:08:42.121Z,100.00
2023-02-04T21:11:11.263Z,100.00
2023-02-04T21:13:41.280Z,100.00
2023-02-04T21:16:10.330Z,100.00
2023-02-04T21:18:39.807Z,100.00
2023-02-04T21:21:10.130Z,100.00
2023-02-04T21:23:39.657Z,100.00
2023-02-04T21:26:08.791Z,100.00
2023-02-04T21:28:37.499Z,100.00
2023-02-04T21:31:08.769Z,100.00
2023-02-04T21:33:38.098Z,100.00
2023-02-04T21:36:08.298Z,100.00
2023-02-04T21:38:37.456Z,100.00
2023-02-04T21:41:06.736Z,100.00
2023-02-04T21:43:36.513Z,100.00
2023-02-04T21:46:05.283Z,100.00
2023-02-04T21:48:35.753Z,100.00
2023-02-04T21:51:05.107Z,100.00
2023-02-04T21:53:34.132Z,100.00
2023-02-04T21:56:03.109Z,100.00
2023-02-04T21:58:31.851Z,100.00
2023-02-04T22:01:01.195Z,100.00
2023-02-04T22:03:30.479Z,100.00
2023-02-04T22:06:01.022Z,100.00
2023-02-04T22:08:30.191Z,100.00
2023-02-04T22:10:59.183Z,100.00
2023-02-04T22:13:27.853Z,100.00
2023-02-04T22:15:56.953Z,100.00
2023-02-04T22:18:26.002Z,100.00
2023-02-04T22:20:55.037Z,100.00
2023-02-04T22:23:25.454Z,100.00
2023-02-04T22:25:53.823Z,100.00
2023-02-04T22:28:22.900Z,100.00
2023-02-04T22:30:54.161Z,100.00
2023-02-04T22:33:23.372Z,100.00
2023-02-04T22:35:52.407Z,100.00
2023-02-04T22:38:21.582Z,100.00
2023-02-04T22:40:51.604Z,100.00
2023-02-04T22:43:20.656Z,100.00
2023-02-04T22:45:49.685Z,100.00
2023-02-04T22:48:18.785Z,100.00
2023-02-04T22:50:47.768Z,100.00
2023-02-04T22:53:16.793Z,100.00
2023-02-04T22:55:45.480Z,100.00
2023-02-04T22:58:16.009Z,100.00
2023-02-04T23:00:45.166Z,100.00
2023-02-04T23:03:14.471Z,100.00
2023-02-04T23:05:43.487Z,100.00
2023-02-04T23:08:12.509Z,100.00
2023-02-04T23:10:41.214Z,100.00
2023-02-04T23:13:10.784Z,100.00
2023-02-04T23:15:41.379Z,100.00
2023-02-04T23:18:10.520Z,100.00
2023-02-04T23:20:41.089Z,100.00
2023-02-04T23:23:14.963Z,100.00
2023-02-04T23:25:43.559Z,100.00
2023-02-04T23:28:12.679Z,100.00
2023-02-04T23:30:43.564Z,100.00
2023-02-04T23:33:12.654Z,100.00
2023-02-04T23:35:41.678Z,100.00
2023-02-04T23:38:10.653Z,100.00
2023-02-04T23:40:39.312Z,100.00
2023-02-04T23:43:10.693Z,100.00
2023-02-04T23:45:40.257Z,100.00
2023-02-04T23:48:11.068Z,100.00
2023-02-04T23:50:40.002Z,100.00
2023-02-04T23:53:08.941Z,100.00
2023-02-04T23:55:37.565Z,100.00
2023-02-04T23:58:07.298Z,100.00
